createdAt,value
2022-10-09T00:01:27.059Z,7.10
2022-10-09T00:03:56.511Z,7.10
2022-10-09T00:06:34.918Z,7.10
2022-10-09T00:09:04.097Z,7.10
2022-10-09T00:11:33.673Z,6.90
2022-10-09T00:14:01.230Z,6.80
2022-10-09T00:16:29.189Z,6.80
2022-10-09T00:18:56.137Z,6.90
2022-10-09T00:21:30.048Z,7.00
2022-10-09T00:24:00.263Z,7.10
2022-10-09T00:26:27.889Z,7.00
2022-10-09T00:28:55.545Z,6.90
2022-10-09T00:31:22.832Z,6.80
2022-10-09T00:33:49.799Z,6.70
2022-10-09T00:36:20.723Z,6.60
2022-10-09T00:38:48.673Z,6.60
2022-10-09T00:41:23.524Z,6.70
2022-10-09T00:43:54.407Z,6.70
2022-10-09T00:46:45.960Z,6.70
2022-10-09T00:49:26.893Z,6.70
2022-10-09T00:51:58.575Z,6.70
2022-10-09T00:54:30.513Z,6.70
2022-10-09T00:56:57.458Z,6.70
2022-10-09T00:59:24.970Z,6.70
2022-10-09T01:01:51.940Z,6.70
2022-10-09T01:04:18.951Z,6.70
2022-10-09T01:07:03.883Z,6.70
2022-10-09T01:10:10.594Z,6.70
2022-10-09T01:13:18.874Z,6.70
2022-10-09T01:15:58.315Z,6.70
2022-10-09T01:18:43.114Z,6.90
2022-10-09T01:21:59.804Z,6.90
2022-10-09T01:24:39.234Z,6.80
2022-10-09T01:27:19.934Z,6.70
2022-10-09T01:29:52.495Z,6.80
2022-10-09T01:32:27.330Z,6.80
2022-10-09T01:34:54.498Z,6.80
2022-10-09T01:37:23.405Z,6.80
2022-10-09T01:39:52.337Z,6.70
2022-10-09T01:42:22.397Z,6.70
2022-10-09T01:44:49.177Z,6.70
2022-10-09T01:47:18.468Z,6.70
2022-10-09T01:50:05.265Z,6.70
2022-10-09T01:52:47.310Z,6.60
2022-10-09T01:55:27.343Z,6.50
2022-10-09T01:58:24.401Z,6.40
2022-10-09T02:01:09.940Z,6.40
2022-10-09T02:03:40.465Z,6.50
2022-10-09T02:06:11.243Z,6.80
2022-10-09T02:08:39.490Z,6.90
2022-10-09T02:11:07.120Z,7.00
2022-10-09T02:13:35.913Z,7.00
2022-10-09T02:16:17.476Z,6.90
2022-10-09T02:18:46.988Z,6.80
2022-10-09T02:21:18.419Z,6.90
2022-10-09T02:23:48.084Z,6.80
2022-10-09T02:26:14.947Z,6.80
2022-10-09T02:28:45.871Z,6.70
2022-10-09T02:31:31.043Z,6.70
2022-10-09T02:34:07.554Z,6.60
2022-10-09T02:36:35.954Z,6.40
2022-10-09T02:39:04.154Z,6.40
2022-10-09T02:41:31.057Z,6.30
2022-10-09T02:43:57.876Z,6.30
2022-10-09T02:46:25.625Z,6.20
2022-10-09T02:48:52.481Z,6.20
2022-10-09T02:51:20.156Z,6.30
2022-10-09T02:53:47.052Z,6.20
2022-10-09T02:56:14.807Z,6.20
2022-10-09T02:58:41.615Z,6.30
2022-10-09T03:01:08.553Z,6.30
2022-10-09T03:03:35.389Z,6.30
2022-10-09T03:06:14.735Z,6.20
2022-10-09T03:08:45.441Z,6.10
2022-10-09T03:11:14.157Z,6.10
2022-10-09T03:13:41.829Z,6.00
2022-10-09T03:16:13.718Z,5.90
2022-10-09T03:18:40.792Z,6.00
2022-10-09T03:21:10.745Z,6.00
2022-10-09T03:23:37.726Z,6.10
2022-10-09T03:26:15.284Z,6.00
2022-10-09T03:28:47.736Z,6.00
2022-10-09T03:31:39.294Z,6.10
2022-10-09T03:34:04.210Z,6.00
2022-10-09T03:36:30.960Z,6.00
2022-10-09T03:38:57.699Z,5.80
2022-10-09T03:41:24.451Z,5.80
2022-10-09T03:43:51.191Z,5.80
2022-10-09T03:46:17.971Z,5.80
2022-10-09T03:48:44.755Z,5.70
2022-10-09T03:51:11.523Z,5.80
2022-10-09T03:53:38.268Z,5.80
2022-10-09T03:56:05.239Z,5.90
2022-10-09T03:58:32.068Z,6.00
2022-10-09T04:00:58.906Z,6.00
2022-10-09T04:03:27.170Z,6.00
2022-10-09T04:05:54.036Z,6.10
2022-10-09T04:08:20.904Z,6.10
2022-10-09T04:10:47.675Z,6.10
2022-10-09T04:13:14.526Z,6.10
2022-10-09T04:15:49.810Z,6.00
2022-10-09T04:18:16.715Z,6.10
2022-10-09T04:20:56.319Z,6.00
2022-10-09T04:23:26.862Z,6.00
2022-10-09T04:25:56.297Z,6.10
2022-10-09T04:28:23.543Z,6.20
2022-10-09T04:30:50.642Z,6.20
2022-10-09T04:33:17.649Z,6.10
2022-10-09T04:35:46.295Z,6.10
2022-10-09T04:38:13.133Z,6.00
2022-10-09T04:40:40.298Z,6.00
2022-10-09T04:43:07.088Z,6.00
2022-10-09T04:45:33.905Z,5.90
2022-10-09T04:48:00.687Z,5.80
2022-10-09T04:50:27.424Z,5.80
2022-10-09T04:52:54.214Z,5.90
2022-10-09T04:55:20.942Z,5.90
2022-10-09T04:57:47.668Z,6.00
2022-10-09T05:00:14.838Z,6.00
2022-10-09T05:02:41.567Z,6.10
2022-10-09T05:05:09.046Z,6.10
2022-10-09T05:07:35.808Z,6.10
2022-10-09T05:10:02.582Z,6.10
2022-10-09T05:12:29.306Z,6.10
2022-10-09T05:14:56.050Z,6.10
2022-10-09T05:17:23.602Z,6.00
2022-10-09T05:19:50.651Z,6.10
2022-10-09T05:22:17.413Z,6.00
2022-10-09T05:24:44.164Z,6.00
2022-10-09T05:27:10.920Z,6.00
2022-10-09T05:29:37.702Z,6.00
2022-10-09T05:32:04.621Z,6.00
2022-10-09T05:34:31.388Z,6.10
2022-10-09T05:36:58.132Z,6.10
2022-10-09T05:39:25.041Z,6.00
2022-10-09T05:41:51.787Z,6.00
2022-10-09T05:44:18.524Z,5.90
2022-10-09T05:46:45.311Z,5.90
2022-10-09T05:49:12.157Z,5.80
2022-10-09T05:51:42.706Z,5.70
2022-10-09T05:54:15.392Z,5.70
2022-10-09T05:56:42.848Z,5.80
2022-10-09T05:59:14.767Z,5.80
2022-10-09T06:01:50.079Z,5.90
2022-10-09T06:04:24.697Z,6.00
2022-10-09T06:06:52.027Z,6.00
2022-10-09T06:09:23.051Z,6.00
2022-10-09T06:11:50.850Z,6.00
2022-10-09T06:14:18.387Z,6.10
2022-10-09T06:16:46.087Z,6.10
2022-10-09T06:19:16.739Z,6.20
2022-10-09T06:21:44.953Z,6.30
2022-10-09T06:24:27.305Z,6.40
2022-10-09T06:26:55.393Z,6.50
2022-10-09T06:29:22.229Z,6.40
2022-10-09T06:31:49.011Z,6.40
2022-10-09T06:34:15.797Z,6.40
2022-10-09T06:36:42.522Z,6.50
2022-10-09T06:39:10.857Z,6.60
2022-10-09T06:41:37.677Z,6.80
2022-10-09T06:44:10.826Z,6.90
2022-10-09T06:46:41.711Z,6.80
2022-10-09T06:49:11.024Z,6.90
2022-10-09T06:51:38.598Z,6.90
2022-10-09T06:54:13.318Z,6.90
2022-10-09T06:56:40.330Z,7.00
2022-10-09T06:59:07.962Z,7.10
2022-10-09T07:01:35.230Z,7.20
2022-10-09T07:04:08.936Z,7.30
2022-10-09T07:06:41.819Z,7.40
2022-10-09T07:09:11.942Z,7.40
2022-10-09T07:11:43.192Z,7.50
2022-10-09T07:14:12.565Z,7.60
2022-10-09T07:16:42.842Z,7.70
2022-10-09T07:19:11.861Z,7.80
2022-10-09T07:21:42.017Z,7.90
2022-10-09T07:24:09.467Z,8.00
2022-10-09T07:26:40.299Z,7.90
2022-10-09T07:29:09.892Z,7.90
2022-10-09T07:31:36.941Z,7.90
2022-10-09T07:34:04.037Z,7.90
2022-10-09T07:36:30.773Z,7.90
2022-10-09T07:38:59.688Z,7.90
2022-10-09T07:41:29.150Z,7.90
2022-10-09T07:43:57.487Z,7.90
2022-10-09T07:46:29.612Z,7.90
2022-10-09T07:48:59.182Z,7.90
2022-10-09T07:51:29.047Z,8.00
2022-10-09T07:53:57.201Z,8.00
2022-10-09T07:56:29.069Z,8.10
2022-10-09T07:58:59.193Z,8.20
2022-10-09T08:01:30.236Z,8.30
2022-10-09T08:03:58.597Z,8.40
2022-10-09T08:06:25.482Z,8.40
2022-10-09T08:08:55.712Z,8.40
2022-10-09T08:11:25.068Z,8.40
2022-10-09T08:13:53.227Z,8.50
2022-10-09T08:16:21.876Z,8.60
2022-10-09T08:18:48.888Z,8.60
2022-10-09T08:21:18.467Z,8.70
2022-10-09T08:23:45.938Z,8.80
2022-10-09T08:26:18.871Z,8.90
2022-10-09T08:28:55.465Z,9.00
2022-10-09T08:31:22.869Z,9.10
2022-10-09T08:33:56.855Z,9.10
2022-10-09T08:36:24.221Z,9.10
2022-10-09T08:38:51.586Z,9.10
2022-10-09T08:41:34.524Z,9.40
2022-10-09T08:44:10.168Z,9.50
2022-10-09T08:47:01.106Z,9.60
2022-10-09T08:50:13.236Z,9.60
2022-10-09T08:52:52.543Z,9.70
2022-10-09T08:55:26.840Z,9.80
2022-10-09T08:57:56.917Z,9.90
2022-10-09T09:00:28.348Z,10.00
2022-10-09T09:03:15.074Z,10.30
2022-10-09T09:05:58.375Z,10.50
2022-10-09T09:08:55.553Z,10.80
2022-10-09T09:11:47.377Z,11.00
2022-10-09T09:15:03.832Z,11.20
2022-10-09T09:17:39.830Z,11.30
2022-10-09T09:20:14.558Z,11.30
2022-10-09T09:22:48.940Z,11.40
2022-10-09T09:25:41.521Z,11.50
2022-10-09T09:28:34.769Z,11.60
2022-10-09T09:31:24.094Z,11.60
2022-10-09T09:34:19.575Z,11.70
2022-10-09T09:36:59.524Z,11.90
2022-10-09T09:42:20.926Z,11.90
2022-10-09T09:45:03.217Z,11.90
2022-10-09T09:47:51.106Z,11.90
2022-10-09T09:50:50.643Z,12.00
2022-10-09T09:53:43.984Z,11.90
2022-10-09T09:56:11.123Z,11.90
2022-10-09T09:58:56.003Z,12.00
2022-10-09T10:01:29.900Z,12.00
2022-10-09T10:04:03.582Z,12.10
2022-10-09T10:06:44.384Z,12.10
2022-10-09T10:09:17.881Z,12.10
2022-10-09T10:11:51.616Z,12.10
2022-10-09T10:14:18.567Z,12.20
2022-10-09T10:16:49.719Z,12.20
2022-10-09T10:19:29.448Z,12.20
2022-10-09T10:22:00.367Z,12.20
2022-10-09T10:24:41.823Z,12.30
2022-10-09T10:27:32.101Z,12.40
2022-10-09T10:30:04.257Z,12.40
2022-10-09T10:33:10.480Z,12.40
2022-10-09T10:35:42.182Z,12.40
2022-10-09T10:38:31.265Z,12.50
2022-10-09T10:41:35.569Z,12.60
2022-10-09T10:44:23.316Z,12.70
2022-10-09T10:47:00.045Z,12.70
2022-10-09T10:49:32.896Z,13.00
2022-10-09T10:52:12.197Z,13.20
2022-10-09T10:54:43.159Z,13.20
2022-10-09T10:57:18.630Z,13.30
2022-10-09T11:00:06.251Z,13.20
2022-10-09T11:03:03.854Z,13.20
2022-10-09T11:06:02.303Z,13.10
2022-10-09T11:08:50.915Z,13.10
2022-10-09T11:11:50.257Z,13.30
2022-10-09T11:14:48.960Z,13.40
2022-10-09T11:17:22.759Z,13.50
2022-10-09T11:20:20.393Z,13.60
2022-10-09T11:23:43.222Z,13.70
2022-10-09T11:26:41.896Z,13.80
2022-10-09T11:29:37.405Z,14.00
2022-10-09T11:32:30.803Z,14.20
2022-10-09T11:35:12.550Z,14.20
2022-10-09T11:37:43.691Z,14.30
2022-10-09T11:40:19.699Z,14.50
2022-10-09T11:43:11.503Z,14.50
2022-10-09T11:46:06.523Z,14.40
2022-10-09T11:48:55.786Z,14.20
2022-10-09T11:51:30.404Z,14.20
2022-10-09T11:53:58.008Z,14.20
2022-10-09T11:56:31.875Z,14.20
2022-10-09T11:59:05.811Z,14.20
2022-10-09T12:01:44.709Z,14.30
2022-10-09T12:04:20.884Z,14.30
2022-10-09T12:07:03.878Z,14.30
2022-10-09T12:09:36.241Z,14.30
2022-10-09T12:12:09.063Z,14.40
2022-10-09T12:14:37.918Z,14.40
2022-10-09T12:17:22.956Z,14.40
2022-10-09T12:20:06.586Z,14.50
2022-10-09T12:22:52.409Z,14.60
2022-10-09T12:25:42.966Z,14.60
2022-10-09T12:28:43.665Z,14.70
2022-10-09T12:31:32.308Z,14.60
2022-10-09T12:34:30.971Z,14.60
2022-10-09T12:37:11.100Z,14.60
2022-10-09T12:39:38.723Z,14.80
2022-10-09T12:42:06.111Z,14.70
2022-10-09T12:44:37.358Z,14.80
2022-10-09T12:47:16.235Z,14.80
2022-10-09T12:49:42.963Z,14.70
2022-10-09T12:52:16.277Z,14.70
2022-10-09T12:54:44.955Z,14.80
2022-10-09T12:57:15.789Z,14.70
2022-10-09T12:59:45.318Z,14.70
2022-10-09T13:02:17.101Z,14.70
2022-10-09T13:05:00.336Z,14.60
2022-10-09T13:07:29.753Z,14.70
2022-10-09T13:10:23.664Z,14.70
2022-10-09T13:12:57.235Z,14.60
2022-10-09T13:15:33.472Z,14.50
2022-10-09T13:18:01.530Z,14.30
2022-10-09T13:20:31.832Z,14.30
2022-10-09T13:23:01.614Z,14.30
2022-10-09T13:25:35.936Z,14.30
2022-10-09T13:28:03.566Z,14.30
2022-10-09T13:30:31.067Z,14.40
2022-10-09T13:32:58.095Z,14.40
2022-10-09T13:35:25.166Z,14.40
2022-10-09T13:37:52.527Z,14.30
2022-10-09T13:40:21.834Z,14.20
2022-10-09T13:42:56.101Z,14.10
2022-10-09T13:45:23.432Z,14.10
2022-10-09T13:47:50.491Z,14.00
2022-10-09T13:50:17.982Z,14.00
2022-10-09T13:52:44.733Z,14.00
2022-10-09T13:55:12.122Z,14.00
2022-10-09T13:57:39.120Z,14.00
2022-10-09T14:00:07.069Z,14.00
2022-10-09T14:02:33.870Z,14.10
2022-10-09T14:05:00.671Z,14.10
2022-10-09T14:07:27.434Z,14.10
2022-10-09T14:09:54.161Z,14.10
2022-10-09T14:12:20.918Z,14.20
2022-10-09T14:14:47.662Z,14.20
2022-10-09T14:17:14.473Z,14.20
2022-10-09T14:19:41.242Z,14.10
2022-10-09T14:22:08.054Z,14.00
2022-10-09T14:24:34.927Z,14.00
2022-10-09T14:27:02.256Z,14.00
2022-10-09T14:29:28.982Z,14.00
2022-10-09T14:31:55.828Z,13.90
2022-10-09T14:34:22.625Z,13.80
2022-10-09T14:36:50.039Z,13.70
2022-10-09T14:39:16.880Z,13.80
2022-10-09T14:41:43.623Z,13.70
2022-10-09T14:44:10.973Z,13.60
2022-10-09T14:46:39.180Z,13.50
2022-10-09T14:49:07.878Z,13.50
2022-10-09T14:51:38.376Z,13.40
2022-10-09T14:54:07.320Z,13.30
2022-10-09T14:56:34.487Z,13.30
2022-10-09T14:59:01.355Z,13.30
2022-10-09T15:01:29.587Z,13.20
2022-10-09T15:03:56.656Z,13.20
2022-10-09T15:06:24.147Z,13.20
2022-10-09T15:08:56.045Z,13.20
2022-10-09T15:11:23.336Z,13.20
2022-10-09T15:13:50.126Z,13.20
2022-10-09T15:16:18.981Z,13.30
2022-10-09T15:18:48.733Z,13.30
2022-10-09T15:21:20.087Z,13.20
2022-10-09T15:23:47.452Z,13.10
2022-10-09T15:26:15.333Z,13.00
2022-10-09T15:28:44.160Z,12.90
2022-10-09T15:31:41.211Z,12.80
2022-10-09T15:34:10.653Z,12.90
2022-10-09T15:36:39.962Z,12.80
2022-10-09T15:39:08.930Z,12.70
2022-10-09T15:41:38.641Z,12.70
2022-10-09T15:44:16.613Z,12.60
2022-10-09T15:46:44.498Z,12.60
2022-10-09T15:49:11.700Z,12.60
2022-10-09T15:51:39.295Z,12.60
2022-10-09T15:54:06.838Z,12.50
2022-10-09T15:56:38.906Z,12.40
2022-10-09T15:59:06.658Z,12.30
2022-10-09T16:01:33.687Z,12.30
2022-10-09T16:04:01.733Z,12.40
2022-10-09T16:06:28.491Z,12.30
2022-10-09T16:08:57.830Z,12.30
2022-10-09T16:11:26.609Z,12.20
2022-10-09T16:13:54.636Z,12.30
2022-10-09T16:16:25.485Z,12.20
2022-10-09T16:18:53.075Z,12.10
2022-10-09T16:21:24.898Z,12.10
2022-10-09T16:23:57.402Z,12.00
2022-10-09T16:26:27.769Z,12.00
2022-10-09T16:28:54.863Z,12.00
2022-10-09T16:31:30.316Z,12.00
2022-10-09T16:33:58.547Z,11.90
2022-10-09T16:36:25.453Z,12.00
2022-10-09T16:38:52.365Z,11.90
2022-10-09T16:41:22.158Z,11.90
2022-10-09T16:43:52.904Z,11.80
2022-10-09T16:49:01.347Z,11.80
2022-10-09T16:51:35.052Z,11.80
2022-10-09T16:54:04.647Z,11.80
2022-10-09T16:56:38.436Z,11.70
2022-10-09T16:59:08.852Z,11.70
2022-10-09T17:01:37.791Z,11.70
2022-10-09T17:04:05.058Z,11.60
2022-10-09T17:06:31.936Z,11.60
2022-10-09T17:08:59.509Z,11.60
2022-10-09T17:11:29.599Z,11.60
2022-10-09T17:13:57.275Z,11.60
2022-10-09T17:16:27.842Z,11.60
2022-10-09T17:18:54.965Z,11.60
2022-10-09T17:21:21.918Z,11.50
2022-10-09T17:23:54.504Z,11.50
2022-10-09T17:26:23.371Z,11.50
2022-10-09T17:28:50.427Z,11.50
2022-10-09T17:31:23.159Z,11.50
2022-10-09T17:33:57.039Z,11.50
2022-10-09T17:36:27.486Z,11.50
2022-10-09T17:38:54.343Z,11.50
2022-10-09T17:41:23.706Z,11.50
2022-10-09T17:43:52.935Z,11.40
2022-10-09T17:46:21.114Z,11.40
2022-10-09T17:48:55.956Z,11.40
2022-10-09T17:51:29.628Z,11.40
2022-10-09T17:54:04.864Z,11.40
2022-10-09T17:56:34.020Z,11.40
2022-10-09T17:59:02.129Z,11.40
2022-10-09T18:01:29.313Z,11.40
2022-10-09T18:03:56.933Z,11.40
2022-10-09T18:06:24.183Z,11.40
2022-10-09T18:08:54.299Z,11.30
2022-10-09T18:11:24.430Z,11.30
2022-10-09T18:13:51.865Z,11.30
2022-10-09T18:16:35.868Z,11.30
2022-10-09T18:19:08.855Z,11.20
2022-10-09T18:21:35.801Z,11.20
2022-10-09T18:24:02.741Z,11.20
2022-10-09T18:26:29.540Z,11.20
2022-10-09T18:28:56.274Z,11.20
2022-10-09T18:31:23.720Z,11.20
2022-10-09T18:33:52.087Z,11.10
2022-10-09T18:36:23.883Z,11.10
2022-10-09T18:38:53.786Z,11.10
2022-10-09T18:41:22.795Z,11.00
2022-10-09T18:43:52.907Z,11.00
2022-10-09T18:46:24.898Z,11.00
2022-10-09T18:48:52.644Z,11.00
2022-10-09T18:51:22.466Z,10.90
2022-10-09T18:53:55.862Z,10.90
2022-10-09T18:56:22.917Z,10.90
2022-10-09T18:58:52.773Z,10.90
2022-10-09T19:01:20.627Z,10.80
2022-10-09T19:03:50.183Z,10.80
2022-10-09T19:06:19.226Z,10.80
2022-10-09T19:08:46.805Z,10.80
2022-10-09T19:11:14.453Z,10.80
2022-10-09T19:13:43.055Z,10.80
2022-10-09T19:16:10.408Z,10.90
2022-10-09T19:18:37.920Z,10.90
2022-10-09T19:21:05.623Z,10.90
2022-10-09T19:23:32.493Z,10.90
2022-10-09T19:26:00.303Z,10.90
2022-10-09T19:28:32.979Z,10.90
2022-10-09T19:31:02.510Z,10.90
2022-10-09T19:33:29.620Z,10.90
2022-10-09T19:35:56.930Z,10.90
2022-10-09T19:38:25.456Z,10.90
2022-10-09T19:40:52.919Z,10.90
2022-10-09T19:43:20.433Z,10.90
2022-10-09T19:45:50.388Z,10.90
2022-10-09T19:48:20.288Z,10.80
2022-10-09T19:50:47.123Z,10.80
2022-10-09T19:53:14.293Z,10.80
2022-10-09T19:55:41.344Z,10.80
2022-10-09T19:58:08.586Z,10.80
2022-10-09T20:00:42.933Z,10.80
2022-10-09T20:03:10.127Z,10.70
2022-10-09T20:05:37.041Z,10.70
2022-10-09T20:08:03.996Z,10.70
2022-10-09T20:10:31.224Z,10.70
2022-10-09T20:12:58.038Z,10.70
2022-10-09T20:15:24.771Z,10.70
2022-10-09T20:17:52.391Z,10.70
2022-10-09T20:20:19.254Z,10.80
2022-10-09T20:22:46.055Z,10.70
2022-10-09T20:25:12.899Z,10.70
2022-10-09T20:27:39.684Z,10.70
2022-10-09T20:30:07.350Z,10.70
2022-10-09T20:32:36.829Z,10.70
2022-10-09T20:35:05.306Z,10.70
2022-10-09T20:37:32.088Z,10.60
2022-10-09T20:39:58.843Z,10.60
2022-10-09T20:42:25.918Z,10.50
2022-10-09T20:44:52.814Z,10.50
2022-10-09T20:47:19.552Z,10.50
2022-10-09T20:49:46.274Z,10.40
2022-10-09T20:52:12.992Z,10.40
2022-10-09T20:54:39.842Z,10.40
2022-10-09T20:57:06.577Z,10.40
2022-10-09T20:59:33.425Z,10.30
2022-10-09T21:02:00.187Z,10.30
2022-10-09T21:04:26.959Z,10.30
2022-10-09T21:06:53.737Z,10.30
2022-10-09T21:09:20.548Z,10.20
2022-10-09T21:11:47.342Z,10.20
2022-10-09T21:14:14.437Z,10.10
2022-10-09T21:16:41.181Z,10.10
2022-10-09T21:19:10.288Z,10.10
2022-10-09T21:21:37.090Z,10.10
2022-10-09T21:24:04.454Z,10.10
2022-10-09T21:26:35.593Z,10.00
2022-10-09T21:29:06.273Z,10.10
2022-10-09T21:31:34.025Z,10.00
2022-10-09T21:34:01.579Z,10.00
2022-10-09T21:37:02.186Z,10.00
2022-10-09T21:39:31.922Z,9.90
2022-10-09T21:41:59.208Z,9.90
2022-10-09T21:44:26.008Z,9.90
2022-10-09T21:46:52.813Z,9.80
2022-10-09T21:49:23.664Z,9.80
2022-10-09T21:51:50.956Z,9.80
2022-10-09T21:54:17.826Z,9.80
2022-10-09T21:56:44.607Z,9.70
2022-10-09T21:59:11.360Z,9.70
2022-10-09T22:01:38.545Z,9.70
2022-10-09T22:04:05.763Z,9.70
2022-10-09T22:06:32.537Z,9.70
2022-10-09T22:09:00.021Z,9.70
2022-10-09T22:11:26.986Z,9.70
2022-10-09T22:13:55.771Z,9.60
2022-10-09T22:16:22.879Z,9.60
2022-10-09T22:18:49.642Z,9.60
2022-10-09T22:21:17.240Z,9.50
2022-10-09T22:23:44.080Z,9.50
2022-10-09T22:26:19.501Z,9.40
2022-10-09T22:28:47.714Z,9.40
2022-10-09T22:31:21.362Z,9.40
2022-10-09T22:33:54.070Z,9.40
2022-10-09T22:36:24.007Z,9.30
2022-10-09T22:38:55.464Z,9.30
2022-10-09T22:41:23.804Z,9.40
2022-10-09T22:43:53.781Z,9.40
2022-10-09T22:46:31.491Z,9.40
2022-10-09T22:48:58.638Z,9.40
2022-10-09T22:51:27.892Z,9.30
2022-10-09T22:53:59.541Z,9.30
2022-10-09T22:56:33.958Z,9.30
2022-10-09T22:59:01.030Z,9.20
2022-10-09T23:01:38.450Z,9.20
2022-10-09T23:04:09.265Z,9.30
2022-10-09T23:06:36.116Z,9.20
2022-10-09T23:09:07.110Z,9.30
2022-10-09T23:11:34.646Z,9.20
2022-10-09T23:14:01.866Z,9.20
2022-10-09T23:16:30.614Z,9.10
2022-10-09T23:19:04.167Z,9.20
2022-10-09T23:21:33.230Z,9.20
2022-10-09T23:23:59.986Z,9.10
2022-10-09T23:26:30.470Z,9.10
2022-10-09T23:29:07.984Z,9.00
2022-10-09T23:31:36.138Z,9.00
2022-10-09T23:34:05.844Z,9.00
2022-10-09T23:36:33.445Z,8.90
2022-10-09T23:39:02.968Z,8.90
2022-10-09T23:41:30.578Z,8.90
2022-10-09T23:43:57.800Z,8.90
2022-10-09T23:46:28.305Z,8.90
2022-10-09T23:48:55.825Z,8.90
2022-10-09T23:51:25.772Z,8.80
2022-10-09T23:53:52.924Z,8.90
2022-10-09T23:56:24.433Z,8.90
2022-10-09T23:58:52.545Z,9.00
